createdAt,value
2022-10-05T00:02:00.698Z,3.83
2022-10-05T00:04:47.944Z,2.40
2022-10-05T00:07:33.074Z,2.97
2022-10-05T00:10:19.957Z,2.40
2022-10-05T00:13:14.405Z,2.22
2022-10-05T00:16:13.045Z,2.90
2022-10-05T00:18:59.766Z,2.20
2022-10-05T00:21:45.080Z,3.33
2022-10-05T00:24:30.400Z,2.40
2022-10-05T00:27:23.266Z,2.53
2022-10-05T00:30:20.514Z,3.08
2022-10-05T00:33:05.907Z,2.75
2022-10-05T00:35:51.421Z,2.95
2022-10-05T00:38:37.335Z,2.97
2022-10-05T00:41:37.510Z,2.67
2022-10-05T00:44:47.375Z,3.63
2022-10-05T00:47:35.573Z,4.20
2022-10-05T00:50:42.130Z,3.97
2022-10-05T00:53:33.500Z,3.47
2022-10-05T00:56:35.266Z,2.58
2022-10-05T00:59:40.032Z,2.55
2022-10-05T01:02:36.913Z,2.88
2022-10-05T01:05:39.876Z,3.17
2022-10-05T01:08:37.069Z,2.90
2022-10-05T01:11:29.857Z,3.00
2022-10-05T01:14:30.616Z,2.53
2022-10-05T01:17:25.269Z,2.55
2022-10-05T01:20:22.478Z,2.60
2022-10-05T01:23:26.569Z,2.60
2022-10-05T01:26:33.435Z,3.42
2022-10-05T01:29:21.734Z,3.25
2022-10-05T01:32:31.491Z,2.72
2022-10-05T01:35:31.153Z,2.80
2022-10-05T01:38:31.279Z,3.03
2022-10-05T01:41:40.586Z,4.30
2022-10-05T01:44:52.984Z,2.90
2022-10-05T01:47:47.085Z,2.75
2022-10-05T01:51:00.254Z,2.97
2022-10-05T01:54:00.096Z,2.95
2022-10-05T01:57:24.302Z,3.55
2022-10-05T02:00:12.301Z,3.25
2022-10-05T02:03:10.274Z,2.95
2022-10-05T02:06:04.330Z,3.95
2022-10-05T02:09:01.127Z,2.90
2022-10-05T02:11:52.021Z,3.28
2022-10-05T02:14:42.313Z,2.63
2022-10-05T02:17:36.242Z,3.40
2022-10-05T02:20:26.623Z,3.35
2022-10-05T02:23:18.347Z,3.30
2022-10-05T02:26:06.421Z,4.00
2022-10-05T02:28:56.506Z,2.95
2022-10-05T02:31:54.014Z,3.13
2022-10-05T02:34:41.605Z,3.00
2022-10-05T02:38:00.955Z,3.30
2022-10-05T02:41:21.129Z,3.10
2022-10-05T02:44:28.348Z,3.00
2022-10-05T02:47:29.500Z,2.65
2022-10-05T02:50:20.596Z,3.13
2022-10-05T02:53:18.989Z,3.58
2022-10-05T02:56:11.204Z,4.57
2022-10-05T02:59:17.693Z,2.72
2022-10-05T03:02:13.353Z,2.95
2022-10-05T03:05:23.704Z,7.13
2022-10-05T03:08:23.394Z,4.13
2022-10-05T03:11:36.647Z,3.22
2022-10-05T03:15:02.667Z,3.00
2022-10-05T03:18:08.983Z,2.70
2022-10-05T03:20:58.350Z,3.17
2022-10-05T03:24:12.187Z,3.50
2022-10-05T03:27:25.177Z,3.70
2022-10-05T03:30:23.278Z,2.97
2022-10-05T03:33:25.003Z,2.33
2022-10-05T03:36:33.484Z,3.03
2022-10-05T03:39:41.590Z,4.15
2022-10-05T03:42:58.878Z,2.70
2022-10-05T03:46:23.993Z,2.97
2022-10-05T03:49:33.136Z,2.70
2022-10-05T03:52:38.038Z,3.10
2022-10-05T03:55:36.274Z,3.40
2022-10-05T03:58:29.318Z,3.20
2022-10-05T04:01:22.567Z,3.70
2022-10-05T04:04:13.671Z,3.35
2022-10-05T04:07:01.420Z,3.40
2022-10-05T04:09:50.259Z,3.38
2022-10-05T04:12:40.078Z,3.47
2022-10-05T04:15:45.704Z,3.42
2022-10-05T04:18:43.660Z,3.22
2022-10-05T04:21:34.021Z,2.95
2022-10-05T04:24:30.568Z,4.07
2022-10-05T04:27:24.256Z,4.68
2022-10-05T04:30:19.336Z,5.05
2022-10-05T04:33:10.231Z,4.35
2022-10-05T04:36:13.131Z,4.28
2022-10-05T04:39:18.766Z,4.68
2022-10-05T04:42:18.229Z,3.92
2022-10-05T04:45:26.158Z,3.47
2022-10-05T04:48:18.507Z,3.50
2022-10-05T04:51:50.885Z,2.13
2022-10-05T04:55:06.796Z,3.10
2022-10-05T04:58:19.486Z,3.45
2022-10-05T05:01:40.155Z,3.80
2022-10-05T05:04:56.029Z,2.83
2022-10-05T05:08:06.881Z,2.97
2022-10-05T05:11:16.860Z,3.25
2022-10-05T05:14:31.560Z,3.23
2022-10-05T05:17:31.116Z,2.60
2022-10-05T05:20:33.317Z,2.90
2022-10-05T05:23:34.482Z,2.83
2022-10-05T05:26:41.214Z,3.20
2022-10-05T05:29:44.898Z,3.92
2022-10-05T05:32:39.171Z,3.22
2022-10-05T05:35:48.447Z,3.15
2022-10-05T05:39:00.262Z,3.25
2022-10-05T05:42:22.707Z,3.53
2022-10-05T05:45:39.032Z,2.78
2022-10-05T05:48:46.439Z,3.38
2022-10-05T05:51:42.624Z,3.03
2022-10-05T05:54:35.914Z,2.60
2022-10-05T05:57:41.064Z,3.20
2022-10-05T06:00:37.790Z,4.30
2022-10-05T06:03:37.134Z,3.70
2022-10-05T06:06:31.228Z,2.80
2022-10-05T06:09:26.840Z,3.33
2022-10-05T06:12:18.228Z,3.05
2022-10-05T06:15:17.582Z,3.08
2022-10-05T06:18:10.198Z,3.50
2022-10-05T06:21:13.232Z,4.20
2022-10-05T06:24:20.941Z,3.35
2022-10-05T06:27:37.730Z,3.50
2022-10-05T06:30:23.163Z,3.67
2022-10-05T06:33:13.988Z,3.38
2022-10-05T06:36:36.626Z,3.20
2022-10-05T06:39:37.323Z,3.88
2022-10-05T06:42:52.910Z,3.13
2022-10-05T06:45:52.875Z,3.72
2022-10-05T06:49:04.526Z,3.22
2022-10-05T06:51:57.995Z,3.15
2022-10-05T06:55:01.009Z,3.63
2022-10-05T06:57:58.015Z,3.55
2022-10-05T07:01:10.953Z,3.63
2022-10-05T07:04:36.811Z,3.72
2022-10-05T07:07:41.299Z,3.17
2022-10-05T07:10:57.694Z,4.07
2022-10-05T07:14:31.656Z,3.22
2022-10-05T07:17:26.395Z,3.05
2022-10-05T07:20:31.749Z,3.00
2022-10-05T07:23:35.655Z,3.20
2022-10-05T07:26:30.706Z,3.22
2022-10-05T07:29:28.985Z,4.53
2022-10-05T07:32:33.358Z,3.50
2022-10-05T07:35:48.920Z,3.90
2022-10-05T07:39:04.428Z,3.53
2022-10-05T07:42:20.019Z,3.78
2022-10-05T07:45:14.633Z,3.63
2022-10-05T07:48:16.062Z,4.93
2022-10-05T07:51:12.245Z,4.22
2022-10-05T07:54:16.316Z,3.97
2022-10-05T07:57:35.474Z,3.97
2022-10-05T08:00:23.741Z,3.97
2022-10-05T08:03:27.241Z,3.63
2022-10-05T08:06:39.335Z,4.47
2022-10-05T08:09:45.469Z,4.17
2022-10-05T08:12:33.221Z,3.97
2022-10-05T08:15:23.222Z,3.30
2022-10-05T08:18:17.066Z,4.50
2022-10-05T08:21:06.131Z,4.13
2022-10-05T08:24:12.000Z,3.88
2022-10-05T08:27:26.716Z,3.88
2022-10-05T08:30:15.161Z,3.80
2022-10-05T08:33:07.031Z,4.32
2022-10-05T08:36:07.122Z,3.95
2022-10-05T08:38:55.176Z,4.03
2022-10-05T08:42:00.680Z,4.70
2022-10-05T08:45:17.764Z,5.20
2022-10-05T08:48:53.308Z,4.30
2022-10-05T08:51:57.396Z,4.10
2022-10-05T08:55:19.771Z,4.88
2022-10-05T08:58:50.330Z,4.85
2022-10-05T09:01:56.843Z,4.75
2022-10-05T09:05:19.603Z,4.30
2022-10-05T09:08:30.896Z,4.70
2022-10-05T09:11:16.629Z,4.20
2022-10-05T09:14:23.712Z,3.92
2022-10-05T09:17:42.365Z,4.10
2022-10-05T09:20:53.143Z,4.47
2022-10-05T09:23:42.107Z,4.50
2022-10-05T09:26:52.515Z,4.47
2022-10-05T09:29:59.291Z,4.50
2022-10-05T09:33:25.720Z,4.50
2022-10-05T09:36:25.138Z,4.07
2022-10-05T09:39:22.506Z,4.70
2022-10-05T09:42:44.635Z,4.30
2022-10-05T09:45:56.741Z,4.20
2022-10-05T09:48:54.833Z,4.28
2022-10-05T09:51:59.856Z,4.65
2022-10-05T09:55:25.547Z,5.03
2022-10-05T09:58:30.355Z,3.92
2022-10-05T10:01:34.385Z,3.88
2022-10-05T10:04:37.412Z,4.25
2022-10-05T10:10:44.076Z,4.20
2022-10-05T10:14:05.696Z,3.78
2022-10-05T10:16:56.927Z,3.83
2022-10-05T10:19:44.942Z,3.60
2022-10-05T10:23:00.988Z,3.58
2022-10-05T10:26:04.442Z,3.38
2022-10-05T10:29:02.553Z,4.38
2022-10-05T10:32:16.916Z,3.72
2022-10-05T10:35:20.437Z,3.45
2022-10-05T10:38:28.547Z,4.20
2022-10-05T10:41:40.315Z,3.50
2022-10-05T10:44:37.679Z,3.90
2022-10-05T10:47:34.488Z,3.88
2022-10-05T10:50:59.900Z,3.88
2022-10-05T10:54:26.326Z,4.20
2022-10-05T10:57:29.500Z,3.88
2022-10-05T11:00:40.773Z,3.38
2022-10-05T11:04:10.937Z,3.65
2022-10-05T11:07:29.824Z,3.35
2022-10-05T11:11:01.456Z,3.10
2022-10-05T11:14:04.284Z,3.05
2022-10-05T11:17:31.593Z,3.67
2022-10-05T11:20:58.153Z,3.33
2022-10-05T11:23:51.957Z,3.50
2022-10-05T11:27:15.298Z,2.90
2022-10-05T11:30:12.363Z,2.80
2022-10-05T11:33:03.832Z,2.80
2022-10-05T11:35:51.996Z,2.90
2022-10-05T11:38:55.524Z,3.10
2022-10-05T11:42:13.125Z,3.10
2022-10-05T11:45:19.112Z,2.90
2022-10-05T11:48:22.490Z,2.50
2022-10-05T11:51:28.860Z,3.00
2022-10-05T11:54:58.408Z,2.88
2022-10-05T11:57:58.740Z,2.30
2022-10-05T12:00:49.969Z,2.20
2022-10-05T12:03:48.033Z,2.40
2022-10-05T12:07:14.839Z,2.20
2022-10-05T12:10:37.937Z,2.25
2022-10-05T12:13:23.000Z,2.33
2022-10-05T12:16:18.782Z,2.70
2022-10-05T12:19:29.609Z,2.95
2022-10-05T12:22:23.174Z,2.60
2022-10-05T12:25:22.834Z,2.97
2022-10-05T12:28:17.480Z,2.38
2022-10-05T12:31:14.313Z,1.65
2022-10-05T12:34:14.144Z,2.20
2022-10-05T12:37:12.049Z,1.98
2022-10-05T12:40:06.411Z,2.20
2022-10-05T12:43:24.991Z,2.25
2022-10-05T12:46:19.818Z,2.00
2022-10-05T12:49:52.079Z,2.38
2022-10-05T12:52:49.915Z,2.22
2022-10-05T12:56:01.737Z,2.05
2022-10-05T12:59:30.815Z,2.40
2022-10-05T13:02:31.231Z,2.13
2022-10-05T13:05:45.044Z,1.90
2022-10-05T13:08:50.692Z,1.77
2022-10-05T13:11:48.092Z,2.20
2022-10-05T13:15:00.102Z,1.90
2022-10-05T13:18:05.389Z,1.98
2022-10-05T13:21:14.019Z,2.08
2022-10-05T13:24:25.893Z,2.22
2022-10-05T13:27:33.509Z,2.10
2022-10-05T13:30:47.917Z,2.28
2022-10-05T13:34:30.127Z,1.88
2022-10-05T13:37:54.607Z,2.10
2022-10-05T13:40:56.329Z,2.20
2022-10-05T13:43:50.289Z,2.00
2022-10-05T13:46:48.304Z,2.10
2022-10-05T13:50:03.507Z,2.30
2022-10-05T13:53:29.604Z,2.30
2022-10-05T13:56:25.951Z,2.15
2022-10-05T13:59:24.901Z,2.90
2022-10-05T14:02:17.675Z,2.05
2022-10-05T14:05:24.082Z,2.30
2022-10-05T14:08:18.935Z,2.20
2022-10-05T14:11:36.409Z,2.13
2022-10-05T14:14:30.370Z,2.17
2022-10-05T14:17:39.656Z,2.25
2022-10-05T14:20:28.656Z,2.35
2022-10-05T14:23:24.221Z,2.45
2022-10-05T14:26:29.876Z,2.28
2022-10-05T14:29:14.903Z,2.80
2022-10-05T14:32:11.962Z,2.42
2022-10-05T14:35:05.042Z,2.10
2022-10-05T14:38:22.447Z,2.03
2022-10-05T14:41:19.999Z,2.10
2022-10-05T14:44:28.447Z,2.53
2022-10-05T14:47:24.025Z,2.13
2022-10-05T14:50:25.289Z,2.40
2022-10-05T14:53:21.691Z,2.58
2022-10-05T14:56:34.015Z,2.60
2022-10-05T14:59:46.727Z,2.93
2022-10-05T15:02:32.262Z,2.72
2022-10-05T15:05:47.756Z,2.50
2022-10-05T15:08:59.793Z,2.45
2022-10-05T15:12:00.018Z,2.22
2022-10-05T15:14:47.317Z,2.40
2022-10-05T15:17:52.563Z,2.22
2022-10-05T15:20:46.946Z,2.67
2022-10-05T15:23:38.025Z,2.42
2022-10-05T15:26:40.386Z,2.60
2022-10-05T15:30:00.265Z,2.78
2022-10-05T15:33:04.299Z,2.58
2022-10-05T15:36:00.603Z,2.28
2022-10-05T15:39:01.900Z,2.80
2022-10-05T15:42:03.461Z,2.42
2022-10-05T15:45:13.767Z,2.50
2022-10-05T15:48:10.032Z,2.13
2022-10-05T15:51:24.688Z,2.65
2022-10-05T15:54:44.165Z,2.63
2022-10-05T15:58:10.159Z,2.55
2022-10-05T16:01:10.397Z,2.78
2022-10-05T16:04:04.579Z,2.45
2022-10-05T16:07:09.455Z,2.80
2022-10-05T16:10:07.036Z,2.42
2022-10-05T16:13:11.722Z,2.58
2022-10-05T16:16:28.738Z,2.42
2022-10-05T16:19:20.035Z,2.35
2022-10-05T16:22:31.579Z,2.83
2022-10-05T16:25:24.921Z,2.67
2022-10-05T16:28:18.370Z,2.53
2022-10-05T16:31:18.765Z,2.28
2022-10-05T16:34:26.015Z,2.60
2022-10-05T16:37:36.312Z,2.20
2022-10-05T16:40:51.927Z,2.13
2022-10-05T16:43:55.688Z,2.75
2022-10-05T16:46:58.185Z,3.25
2022-10-05T16:50:02.060Z,2.40
2022-10-05T16:53:12.134Z,2.45
2022-10-05T16:56:08.851Z,2.70
2022-10-05T16:59:14.584Z,2.25
2022-10-05T17:02:28.419Z,2.50
2022-10-05T17:05:31.980Z,2.95
2022-10-05T17:08:36.588Z,2.65
2022-10-05T17:11:46.364Z,2.80
2022-10-05T17:15:26.233Z,3.25
2022-10-05T17:18:38.925Z,2.38
2022-10-05T17:22:24.002Z,3.17
2022-10-05T17:25:24.200Z,2.90
2022-10-05T17:28:12.745Z,3.15
2022-10-05T17:31:13.511Z,2.72
2022-10-05T17:34:16.755Z,2.90
2022-10-05T17:37:26.740Z,2.85
2022-10-05T17:40:33.491Z,2.45
2022-10-05T17:43:25.168Z,3.15
2022-10-05T17:46:10.818Z,2.92
2022-10-05T17:48:55.858Z,2.58
2022-10-05T17:51:59.774Z,2.80
2022-10-05T17:55:03.524Z,2.95
2022-10-05T17:57:48.824Z,2.92
2022-10-05T18:01:04.324Z,2.60
2022-10-05T18:03:51.414Z,2.80
2022-10-05T18:06:37.915Z,2.80
2022-10-05T18:09:23.292Z,2.65
2022-10-05T18:12:17.945Z,2.80
2022-10-05T18:15:06.577Z,2.85
2022-10-05T18:18:19.542Z,2.97
2022-10-05T18:21:14.214Z,2.97
2022-10-05T18:24:01.349Z,3.25
2022-10-05T18:26:59.515Z,2.70
2022-10-05T18:30:08.697Z,3.20
2022-10-05T18:33:41.556Z,2.80
2022-10-05T18:37:10.694Z,2.88
2022-10-05T18:40:26.693Z,2.65
2022-10-05T18:43:32.228Z,3.53
2022-10-05T18:46:31.655Z,3.40
2022-10-05T18:49:29.160Z,3.45
2022-10-05T18:52:31.828Z,5.00
2022-10-05T18:58:24.547Z,2.65
2022-10-05T19:01:24.308Z,6.15
2022-10-05T19:04:40.522Z,2.78
2022-10-05T19:07:50.801Z,2.60
2022-10-05T19:11:10.456Z,2.88
2022-10-05T19:14:14.414Z,2.70
2022-10-05T19:17:22.048Z,2.70
2022-10-05T19:20:25.741Z,2.85
2022-10-05T19:23:22.585Z,3.28
2022-10-05T19:26:28.185Z,2.90
2022-10-05T19:29:38.081Z,3.00
2022-10-05T19:32:48.632Z,3.20
2022-10-05T19:35:33.816Z,3.50
2022-10-05T19:38:24.652Z,3.33
2022-10-05T19:41:33.767Z,3.42
2022-10-05T19:44:52.159Z,3.55
2022-10-05T19:48:03.348Z,3.78
2022-10-05T19:50:59.237Z,3.72
2022-10-05T19:53:47.015Z,3.97
2022-10-05T19:56:52.718Z,3.33
2022-10-05T19:59:40.457Z,3.70
2022-10-05T20:02:27.876Z,3.47
2022-10-05T20:05:13.843Z,4.38
2022-10-05T20:07:59.254Z,4.43
2022-10-05T20:11:02.992Z,4.43
2022-10-05T20:14:10.164Z,4.70
2022-10-05T20:17:35.978Z,3.95
2022-10-05T20:20:41.631Z,4.05
2022-10-05T20:23:28.477Z,3.88
2022-10-05T20:26:58.931Z,3.88
2022-10-05T20:29:45.111Z,4.07
2022-10-05T20:32:30.991Z,4.50
2022-10-05T20:35:18.109Z,3.60
2022-10-05T20:38:03.633Z,4.32
2022-10-05T20:40:49.229Z,4.43
2022-10-05T20:43:35.719Z,4.10
2022-10-05T20:46:20.918Z,3.60
2022-10-05T20:49:09.522Z,4.05
2022-10-05T20:51:55.871Z,3.50
2022-10-05T20:54:41.945Z,3.53
2022-10-05T20:57:27.619Z,4.38
2022-10-05T21:00:13.609Z,3.42
2022-10-05T21:02:59.152Z,4.60
2022-10-05T21:05:45.130Z,4.07
2022-10-05T21:08:31.248Z,3.72
2022-10-05T21:11:17.043Z,3.95
2022-10-05T21:14:05.695Z,4.22
2022-10-05T21:16:52.482Z,3.70
2022-10-05T21:19:40.641Z,3.83
2022-10-05T21:22:25.683Z,3.85
2022-10-05T21:25:11.077Z,4.68
2022-10-05T21:27:56.743Z,4.30
2022-10-05T21:30:41.735Z,4.38
2022-10-05T21:33:27.394Z,4.35
2022-10-05T21:36:14.571Z,4.60
2022-10-05T21:39:00.099Z,4.70
2022-10-05T21:41:48.656Z,4.75
2022-10-05T21:44:34.875Z,4.38
2022-10-05T21:47:20.326Z,4.75
2022-10-05T21:50:07.959Z,4.47
2022-10-05T21:52:53.668Z,5.40
2022-10-05T21:55:41.369Z,4.50
2022-10-05T21:58:28.131Z,4.13
2022-10-05T22:01:13.614Z,4.03
2022-10-05T22:03:58.768Z,4.20
2022-10-05T22:06:44.130Z,4.03
2022-10-05T22:09:29.493Z,4.25
2022-10-05T22:12:15.788Z,3.78
2022-10-05T22:15:00.901Z,4.28
2022-10-05T22:17:46.334Z,4.35
2022-10-05T22:20:34.412Z,4.60
2022-10-05T22:23:20.096Z,4.13
2022-10-05T22:26:07.831Z,3.55
2022-10-05T22:28:56.973Z,3.97
2022-10-05T22:31:42.372Z,3.75
2022-10-05T22:34:27.692Z,4.00
2022-10-05T22:37:13.704Z,3.88
2022-10-05T22:39:59.105Z,3.90
2022-10-05T22:42:44.366Z,3.85
2022-10-05T22:45:32.576Z,3.95
2022-10-05T22:48:18.511Z,3.67
2022-10-05T22:51:04.614Z,3.70
2022-10-05T22:53:49.616Z,4.40
2022-10-05T22:56:34.984Z,4.15
2022-10-05T22:59:20.337Z,4.20
2022-10-05T23:02:06.054Z,3.92
2022-10-05T23:04:51.246Z,3.17
2022-10-05T23:07:38.149Z,4.15
2022-10-05T23:10:24.236Z,3.28
2022-10-05T23:13:09.413Z,3.55
2022-10-05T23:15:55.063Z,3.58
2022-10-05T23:18:41.127Z,3.83
2022-10-05T23:21:29.339Z,3.03
2022-10-05T23:24:14.770Z,3.63
2022-10-05T23:27:00.159Z,3.83
2022-10-05T23:29:45.489Z,4.30
2022-10-05T23:32:30.876Z,3.83
2022-10-05T23:35:16.306Z,4.10
2022-10-05T23:38:01.793Z,3.63
2022-10-05T23:40:47.528Z,3.03
2022-10-05T23:43:35.518Z,3.05
2022-10-05T23:46:21.025Z,3.58
2022-10-05T23:49:06.935Z,3.05
2022-10-05T23:51:52.052Z,3.30
2022-10-05T23:54:37.320Z,3.08
2022-10-05T23:57:22.847Z,3.22
